Bergem, Luxembourg
Current Conditions -  °F | °C
As of 12:50 AM on Sunday 23 Nov 2014 (Local Time) from ELLX Reporting Station
Clear Clear  
Wind Chill: 44°   Ceiling: Unl
Heat Index: 46°   Visibility: 6mi
Dew Point: 45°   Wind: 6mph
Humidity: 93%   Direction: 140°SE
Pressure: 30.12"   Gusts: NA
Location:  49.53°N, 6.04°E
Report Text: ELLX 222350Z 14005KT CAVOK 08/07 Q1020 NOSIG
Loading
Personal Weather Stations






























Interactive Weather Map New forecast layout! Learn more

10-Day Weather Forecast

Advertisements
Track Severe Weather on mobile